Main page
METAR-TAF:

METAR-TAF

Airports :

Figari–Sud Corse Airport

Figari, France

latitude: 41-30N, longitude: 009-06E, elevation: 26 m

Current weather observation

The report was made 30 minutes ago, at 10:00 UTC
Wind 8 kt from the Northeast, varying between North and East
Temperature 15°C
Humidity 59%
Pressure 1024 hPa
Visibility 10 km or more
no clouds below 1500 m and no cumulonimbus

METAR: LFKF 201000Z AUTO 04008KT 010V090 CAVOK 15/07 Q1024 NOSIG

Time: 11:30 (10:30 UTC)

Forecast

The report was made 2 hours and 30 minutes ago, at 08:00 UTC
Forecast valid from 20 at 09 UTC to 21 at 09 UTC
Wind 8 kt from the East/Northeast
Visibility 10 km or more
Scattered clouds at a height of 4500 ft
Temporary
from 20 at 12 UTC to 20 at 15 UTC
Wind 10 kt from the West/Southwest
Temporary
from 20 at 18 UTC to 20 at 21 UTC
Broken clouds at a height of 1000 ft

TAF: LFKF 200800Z 2009/2109 06008KT 9999 SCT045 TEMPO 2012/2015 24010KT TEMPO 2018/2021 BKN010

Weather observations and forecasts of more than 4000 airports (METAR and TAF reports).

The available stations are represented by yellow and red dots on the map.

Hover mouse over dot to see the name of the station.

Then click to see weather observations and forecasts.

To change the map : click on the green buttons with a black cross to zoom in, on the green button with a dash to zoom out, or on the green arrows for adjacent maps.


METAR-TAF: